Time;durP1;ratioP1;P1;durP2;ratioP2;P2;SDS_P1;SDS_P2;PMS_P1;PMS_P2;Temp;Humidity;BMP_temperature;BMP_pressure;BME280_temperature;BME280_humidity;BME280_pressure;Samples;Min_cycle;Max_cycle;Signal;HPM_P1;HPM_P2
2022/12/17 13:06:04;;;;;;;18.37;8.83;;;2.00;99.90;;;;;;5090200;28;20222;-80
2022/12/17 13:08:31;;;;;;;17.43;10.03;;;2.00;99.90;;;;;;5095013;28;20633;-80
2022/12/17 13:11:08;;;;;;;20.83;10.20;;;2.30;99.90;;;;;;5096483;28;20205;-80
2022/12/17 13:13:54;;;;;;;16.47;9.80;;;2.30;99.90;;;;;;5082807;28;20443;-80
2022/12/17 13:16:31;;;;;;;18.03;10.13;;;2.60;99.90;;;;;;5097024;28;20725;-80
2022/12/17 13:19:16;;;;;;;18.17;9.87;;;1.80;99.90;;;;;;5095595;28;20251;-80
2022/12/17 13:21:43;;;;;;;20.97;10.33;;;1.40;99.90;;;;;;5074714;28;20232;-81
2022/12/17 13:24:11;;;;;;;18.60;10.10;;;1.10;99.90;;;;;;5084170;28;20206;-80
2022/12/17 13:26:44;;;;;;;19.10;10.83;;;0.90;99.90;;;;;;5094503;28;20583;-80
2022/12/17 13:29:20;;;;;;;18.50;10.97;;;0.80;99.90;;;;;;5081466;28;20237;-80
2022/12/17 13:32:08;;;;;;;21.07;10.87;;;0.70;99.90;;;;;;5095851;28;20219;-80
2022/12/17 13:34:57;;;;;;;21.53;10.73;;;0.80;99.90;;;;;;5096754;28;20222;-81
2022/12/17 13:37:32;;;;;;;19.77;10.93;;;1.00;99.90;;;;;;5095737;28;20214;-80
2022/12/17 13:40:09;;;;;;;23.63;13.70;;;1.20;99.90;;;;;;5096713;28;20197;-80
2022/12/17 13:42:36;;;;;;;20.83;10.70;;;1.00;99.90;;;;;;5095725;28;20209;-81
2022/12/17 13:45:04;;;;;;;19.93;11.77;;;0.80;99.90;;;;;;5098716;28;20552;-80
2022/12/17 13:47:37;;;;;;;20.90;11.27;;;0.60;99.90;;;;;;5095357;28;20221;-80
2022/12/17 13:50:19;;;;;;;20.63;11.10;;;0.50;99.90;;;;;;5094464;28;20198;-80
2022/12/17 13:52:46;;;;;;;23.37;11.60;;;0.30;99.90;;;;;;5097498;28;20211;-80
2022/12/17 13:55:20;;;;;;;20.33;11.63;;;0.20;99.90;;;;;;5111887;28;20210;-80
2022/12/17 13:57:48;;;;;;;21.83;11.70;;;0.20;99.90;;;;;;5093987;28;20229;-80
2022/12/17 14:00:21;;;;;;;23.13;12.10;;;0.00;99.90;;;;;;5089224;28;20230;-80
2022/12/17 14:02:48;;;;;;;23.17;13.73;;;0.00;99.90;;;;;;5090926;28;20212;-80
2022/12/17 14:05:26;;;;;;;21.93;11.87;;;-0.20;99.90;;;;;;5088062;28;20260;-80
2022/12/17 14:07:54;;;;;;;23.37;12.70;;;-0.20;99.90;;;;;;5094876;28;20264;-80
2022/12/17 14:10:21;;;;;;;20.77;12.03;;;-0.30;99.90;;;;;;5093019;28;20217;-80
2022/12/17 14:12:48;;;;;;;25.40;12.00;;;-0.30;99.90;;;;;;5096460;28;20201;-80
2022/12/17 14:15:23;;;;;;;22.13;11.67;;;-0.40;99.90;;;;;;5096861;28;20198;-81
2022/12/17 14:17:50;;;;;;;21.47;12.07;;;-0.50;99.90;;;;;;5091254;28;20806;-80
2022/12/17 14:20:21;;;;;;;25.10;12.90;;;-0.60;99.90;;;;;;5094272;28;20250;-80
2022/12/17 14:22:52;;;;;;;24.83;12.57;;;-0.60;99.90;;;;;;5091236;28;20729;-80
2022/12/17 14:25:21;;;;;;;25.53;13.97;;;-0.70;99.90;;;;;;5095762;28;20209;-80
2022/12/17 14:27:54;;;;;;;24.33;14.97;;;-0.70;99.90;;;;;;5097506;28;20233;-80
2022/12/17 14:30:24;;;;;;;26.17;15.03;;;-0.70;99.90;;;;;;5094079;28;20208;-80
2022/12/17 14:32:51;;;;;;;26.47;15.67;;;-0.70;99.90;;;;;;5085612;28;20210;-80
2022/12/17 14:35:26;;;;;;;26.33;15.20;;;-0.50;99.90;;;;;;5081052;28;20218;-80
2022/12/17 14:37:55;;;;;;;26.80;15.63;;;-0.50;99.90;;;;;;5077561;28;20217;-80
2022/12/17 14:40:24;;;;;;;25.67;15.07;;;-0.80;99.90;;;;;;5092894;28;20273;-79
2022/12/17 14:42:52;;;;;;;27.83;16.47;;;-0.90;99.90;;;;;;5091492;28;20193;-80
2022/12/17 14:45:24;;;;;;;29.37;17.47;;;-0.80;99.90;;;;;;5095274;28;20217;-80
2022/12/17 14:47:56;;;;;;;27.97;15.27;;;-0.80;99.90;;;;;;5086563;28;20225;-80
2022/12/17 14:50:28;;;;;;;26.37;15.17;;;-1.00;99.90;;;;;;5089806;28;20589;-79
2022/12/17 14:52:57;;;;;;;24.50;14.27;;;-1.10;99.90;;;;;;5098560;28;20778;-80
2022/12/17 14:55:37;;;;;;;27.87;13.93;;;-1.20;99.90;;;;;;5106359;28;20632;-80
2022/12/17 14:58:19;;;;;;;24.40;13.87;;;-1.20;99.90;;;;;;5092828;28;20323;-80
2022/12/17 15:00:50;;;;;;;29.80;15.23;;;-1.40;99.90;;;;;;5097256;28;20205;-80
2022/12/17 15:03:23;;;;;;;26.90;14.73;;;-1.50;99.90;;;;;;5095648;28;20504;-80
2022/12/17 15:05:53;;;;;;;30.20;17.80;;;-1.60;99.90;;;;;;5098074;28;20220;-80
2022/12/17 15:08:22;;;;;;;26.63;15.97;;;-1.60;99.90;;;;;;5094952;28;20232;-80
2022/12/17 15:10:48;;;;;;;28.40;16.77;;;-1.60;99.90;;;;;;5091817;28;20234;-80
2022/12/17 15:13:15;;;;;;;32.23;17.90;;;-1.70;99.90;;;;;;5093906;28;20202;-80
2022/12/17 15:15:42;;;;;;;27.70;16.50;;;-1.80;99.90;;;;;;5094643;28;20267;-80
2022/12/17 15:18:12;;;;;;;29.67;16.73;;;-1.80;99.90;;;;;;5098048;28;20228;-80
2022/12/17 15:20:39;;;;;;;30.10;17.70;;;-1.80;99.90;;;;;;5095582;28;20216;-79
2022/12/17 15:23:05;;;;;;;29.73;15.70;;;-1.90;99.90;;;;;;5086447;28;20198;-79
2022/12/17 15:25:34;;;;;;;30.77;17.40;;;-2.00;99.90;;;;;;5095848;28;20216;-80
2022/12/17 15:28:01;;;;;;;28.63;15.80;;;-2.10;99.90;;;;;;5086463;28;20603;-80
2022/12/17 15:30:28;;;;;;;27.43;15.17;;;-2.10;99.90;;;;;;5087132;28;20194;-79
2022/12/17 15:32:54;;;;;;;32.37;17.07;;;-2.20;99.90;;;;;;5090563;28;20217;-80
2022/12/17 15:35:21;;;;;;;33.90;17.57;;;-2.40;99.90;;;;;;5098984;28;20194;-80
2022/12/17 15:37:48;;;;;;;30.33;15.60;;;-2.40;99.90;;;;;;5100111;28;20224;-79
2022/12/17 15:40:15;;;;;;;31.17;16.73;;;-2.50;99.90;;;;;;5096690;28;20210;-80
2022/12/17 15:45:27;;;;;;;30.67;15.47;;;-2.60;99.90;;;;;;5096461;28;20301;-81
2022/12/17 15:47:54;;;;;;;28.07;15.40;;;-2.60;99.90;;;;;;5093541;28;20222;-80
2022/12/17 15:50:21;;;;;;;27.47;15.50;;;-2.50;99.90;;;;;;5082164;28;20205;-80
2022/12/17 15:52:48;;;;;;;28.30;15.33;;;-2.40;99.90;;;;;;5095002;28;20222;-80
2022/12/17 15:55:15;;;;;;;28.43;15.43;;;-2.60;99.90;;;;;;5100260;28;20213;-81
2022/12/17 15:57:43;;;;;;;29.03;16.07;;;-2.70;99.90;;;;;;5079119;28;20273;-81
2022/12/17 16:00:11;;;;;;;26.17;14.83;;;-2.80;99.90;;;;;;5104172;28;20280;-80
2022/12/17 16:02:38;;;;;;;27.67;15.03;;;-2.80;99.90;;;;;;5092685;28;20614;-80
2022/12/17 16:05:06;;;;;;;30.40;14.13;;;-2.80;99.90;;;;;;5091759;28;20242;-80
2022/12/17 16:07:33;;;;;;;24.20;13.00;;;-2.90;99.90;;;;;;5097903;28;20497;-81
2022/12/17 16:09:59;;;;;;;37.10;15.93;;;-3.20;99.90;;;;;;5100267;28;20217;-81
2022/12/17 16:12:26;;;;;;;28.47;15.03;;;-3.40;99.90;;;;;;5093864;28;20208;-83
2022/12/17 16:14:54;;;;;;;26.20;13.60;;;-3.50;99.90;;;;;;5093892;28;20214;-82
2022/12/17 16:17:21;;;;;;;27.63;14.47;;;-3.60;99.90;;;;;;5078859;28;20222;-81
2022/12/17 16:19:48;;;;;;;26.07;12.67;;;-3.50;99.90;;;;;;5083773;28;20230;-81
2022/12/17 16:22:15;;;;;;;25.73;13.63;;;-3.50;99.90;;;;;;5099261;28;20206;-80
2022/12/17 16:24:42;;;;;;;24.07;13.40;;;-3.60;99.90;;;;;;5095093;28;20279;-81
2022/12/17 16:27:08;;;;;;;28.60;13.83;;;-3.50;99.90;;;;;;5101984;28;20286;-81
2022/12/17 16:29:35;;;;;;;27.23;13.90;;;-3.50;99.90;;;;;;5100920;28;20229;-81
2022/12/17 16:32:04;;;;;;;25.20;13.83;;;-3.50;99.90;;;;;;5094493;28;20207;-81
2022/12/17 16:34:30;;;;;;;29.63;14.43;;;-3.60;99.90;;;;;;5096752;28;20205;-81
2022/12/17 16:36:58;;;;;;;24.13;12.77;;;-3.60;99.90;;;;;;5104834;28;20653;-81
2022/12/17 16:39:25;;;;;;;23.20;12.77;;;-3.70;99.90;;;;;;5102705;28;20202;-81
2022/12/17 16:41:52;;;;;;;21.17;12.23;;;-3.70;99.90;;;;;;5100464;28;20204;-81
2022/12/17 16:44:19;;;;;;;24.33;11.97;;;-3.60;99.90;;;;;;5100080;28;20206;-80
2022/12/17 16:46:46;;;;;;;25.37;12.60;;;-3.50;99.90;;;;;;5107840;28;20242;-81
2022/12/17 16:49:18;;;;;;;22.97;12.30;;;-3.60;99.90;;;;;;5095507;28;20252;-81
2022/12/17 16:51:46;;;;;;;23.83;12.00;;;-3.70;99.90;;;;;;5099202;28;20450;-81
2022/12/17 16:54:15;;;;;;;24.20;13.67;;;-3.80;99.90;;;;;;5103549;28;20205;-81
2022/12/17 16:56:42;;;;;;;24.23;14.30;;;-3.90;99.90;;;;;;5099105;28;20289;-81
2022/12/17 16:59:10;;;;;;;24.47;12.87;;;-3.90;99.90;;;;;;5104633;28;20205;-81
2022/12/17 17:01:38;;;;;;;24.83;14.47;;;-3.90;99.90;;;;;;5100458;28;20907;-81
2022/12/17 17:04:10;;;;;;;27.37;16.07;;;-3.90;99.90;;;;;;5109081;28;20240;-81
2022/12/17 17:06:40;;;;;;;27.53;13.47;;;-3.90;99.90;;;;;;5096552;28;20206;-80
2022/12/17 17:09:07;;;;;;;29.87;16.33;;;-4.10;99.90;;;;;;5101420;28;20218;-81
2022/12/17 17:11:34;;;;;;;25.37;15.83;;;-4.20;99.90;;;;;;5106295;28;20208;-81
2022/12/17 17:14:01;;;;;;;29.00;15.50;;;-4.30;99.90;;;;;;5114866;28;20215;-81
2022/12/17 17:16:29;;;;;;;29.97;16.30;;;-4.10;99.90;;;;;;5095668;28;20269;-80
2022/12/17 17:18:56;;;;;;;33.57;20.13;;;-4.20;99.90;;;;;;5100982;28;20224;-81
2022/12/17 17:21:26;;;;;;;35.20;17.47;;;-4.00;99.90;;;;;;5095424;28;20687;-81
2022/12/17 17:23:58;;;;;;;30.37;16.60;;;-4.30;99.90;;;;;;5096983;28;20202;-80
2022/12/17 17:26:25;;;;;;;28.17;15.60;;;-4.40;99.90;;;;;;5102556;28;20216;-81
2022/12/17 17:28:52;;;;;;;30.00;17.97;;;-4.30;99.90;;;;;;5097131;28;20221;-81
2022/12/17 17:31:20;;;;;;;27.73;14.10;;;-4.40;99.90;;;;;;5101435;28;20209;-81
2022/12/17 17:33:48;;;;;;;29.87;14.73;;;-4.40;99.90;;;;;;5091341;28;20246;-82
2022/12/17 17:36:17;;;;;;;29.23;14.53;;;-4.50;99.90;;;;;;5102427;28;20231;-80
2022/12/17 17:38:44;;;;;;;25.73;14.03;;;-4.50;99.90;;;;;;5112724;28;20218;-80
2022/12/17 17:41:13;;;;;;;26.50;15.70;;;-4.50;99.90;;;;;;5088310;28;20226;-81
2022/12/17 17:43:40;;;;;;;28.40;16.53;;;-4.50;99.90;;;;;;5104825;28;20902;-81
2022/12/17 17:46:09;;;;;;;30.70;15.73;;;-4.40;99.90;;;;;;5103994;28;20223;-80
2022/12/17 17:48:36;;;;;;;33.47;18.30;;;-4.60;99.90;;;;;;5101906;28;20227;-81
2022/12/17 17:51:06;;;;;;;31.40;18.43;;;-4.50;99.90;;;;;;5096850;28;20208;-80
2022/12/17 17:53:33;;;;;;;30.60;16.03;;;-4.50;99.90;;;;;;5093148;28;20591;-81
2022/12/17 17:56:04;;;;;;;33.77;16.50;;;-4.50;99.90;;;;;;5095277;28;20207;-81
2022/12/17 17:58:33;;;;;;;34.23;18.47;;;-4.70;99.90;;;;;;5100258;28;20642;-81
2022/12/17 18:01:06;;;;;;;35.97;20.10;;;-4.80;99.90;;;;;;5098228;28;20201;-81
2022/12/17 18:03:33;;;;;;;34.43;19.70;;;-4.90;99.90;;;;;;5082747;28;20210;-82
2022/12/17 18:06:01;;;;;;;31.63;17.03;;;-4.90;99.90;;;;;;5091903;28;20201;-81
2022/12/17 18:08:29;;;;;;;29.00;15.93;;;-4.80;99.90;;;;;;5092898;28;20279;-81
2022/12/17 18:10:56;;;;;;;35.27;19.80;;;-5.00;99.90;;;;;;5087375;28;20224;-81
2022/12/17 18:16:09;;;;;;;32.53;19.40;;;-5.10;99.90;;;;;;5093894;28;20225;-81
2022/12/17 18:18:36;;;;;;;30.67;18.00;;;-5.40;99.90;;;;;;5095685;28;20217;-81
2022/12/17 18:21:05;;;;;;;29.43;17.90;;;-5.70;99.90;;;;;;5100457;28;20704;-81
2022/12/17 18:23:32;;;;;;;28.20;16.10;;;-5.60;99.90;;;;;;5097890;28;20194;-80
2022/12/17 18:26:05;;;;;;;25.00;15.30;;;-5.40;99.90;;;;;;5098314;28;20269;-81
2022/12/17 18:28:32;;;;;;;28.80;17.13;;;-5.50;99.90;;;;;;5099871;28;20255;-81
2022/12/17 18:31:06;;;;;;;31.30;17.37;;;-5.50;99.90;;;;;;5095812;28;20271;-81
2022/12/17 18:33:34;;;;;;;28.77;16.30;;;-5.40;99.90;;;;;;5094632;28;20205;-81
2022/12/17 18:36:01;;;;;;;30.50;17.17;;;-5.30;99.90;;;;;;5099672;28;20281;-81
2022/12/17 18:38:28;;;;;;;27.40;14.73;;;-5.30;99.90;;;;;;5101387;28;20240;-80
2022/12/17 18:40:54;;;;;;;28.40;17.33;;;-5.20;99.90;;;;;;5095176;28;20202;-81
2022/12/17 18:43:23;;;;;;;29.07;15.83;;;-5.30;99.90;;;;;;5102131;28;20294;-81
2022/12/17 18:45:50;;;;;;;26.33;15.13;;;-5.50;99.90;;;;;;5088808;28;20223;-81
2022/12/17 18:48:17;;;;;;;32.60;19.20;;;-5.60;99.90;;;;;;5088959;28;20213;-81
2022/12/17 18:50:46;;;;;;;30.70;18.73;;;-5.50;99.90;;;;;;5094358;28;20685;-80
2022/12/17 18:53:12;;;;;;;32.83;18.67;;;-5.60;99.90;;;;;;5097265;28;20206;-80
2022/12/17 18:55:40;;;;;;;36.73;20.27;;;-5.60;99.90;;;;;;5100259;28;20204;-81
2022/12/17 18:58:07;;;;;;;37.77;23.03;;;-5.60;99.90;;;;;;5101019;28;20233;-80
2022/12/17 19:00:35;;;;;;;42.73;24.80;;;-5.40;99.90;;;;;;5102158;28;20236;-81
2022/12/17 19:03:03;;;;;;;41.97;24.97;;;-5.40;99.90;;;;;;5100113;28;20240;-81
2022/12/17 19:05:29;;;;;;;37.13;22.27;;;-5.40;99.90;;;;;;5086704;28;20198;-80
2022/12/17 19:07:57;;;;;;;31.33;17.63;;;-5.50;99.90;;;;;;5102212;28;20230;-81
2022/12/17 19:10:24;;;;;;;32.80;19.43;;;-5.60;99.90;;;;;;5103662;28;20674;-80
2022/12/17 19:12:51;;;;;;;34.27;19.07;;;-5.60;99.90;;;;;;5104108;28;20667;-81
2022/12/17 19:15:18;;;;;;;38.63;21.77;;;-5.40;99.90;;;;;;5104352;28;20201;-80
2022/12/17 19:17:49;;;;;;;35.10;20.33;;;-5.30;99.90;;;;;;5101955;28;20226;-80
2022/12/17 19:20:17;;;;;;;33.27;17.70;;;-5.30;99.90;;;;;;5103196;28;20193;-81
2022/12/17 19:22:44;;;;;;;33.17;19.27;;;-5.30;99.90;;;;;;5104412;28;20204;-80
2022/12/17 19:25:12;;;;;;;28.93;16.70;;;-5.50;99.90;;;;;;5105205;28;20201;-80
2022/12/17 19:27:39;;;;;;;31.37;16.40;;;-5.50;99.90;;;;;;5105070;28;20218;-80
2022/12/17 19:30:07;;;;;;;27.03;15.50;;;-5.70;99.90;;;;;;5103280;28;20686;-81
2022/12/17 19:32:34;;;;;;;27.73;15.50;;;-5.60;99.90;;;;;;5104273;28;20307;-80
2022/12/17 19:35:01;;;;;;;26.40;14.73;;;-5.60;99.90;;;;;;5105109;28;20202;-81
2022/12/17 19:37:27;;;;;;;26.53;14.70;;;-5.40;99.90;;;;;;5103139;28;20306;-80
2022/12/17 19:39:54;;;;;;;27.10;14.53;;;-5.50;99.90;;;;;;5105009;28;20194;-80
2022/12/17 19:42:26;;;;;;;24.80;12.93;;;-5.50;99.90;;;;;;5104363;28;20208;-80
2022/12/17 19:44:53;;;;;;;25.10;13.90;;;-5.40;99.90;;;;;;5105544;28;20198;-81
2022/12/17 19:47:21;;;;;;;26.00;15.00;;;-5.30;99.90;;;;;;5102301;28;20232;-80
2022/12/17 19:49:48;;;;;;;25.03;14.53;;;-5.30;99.90;;;;;;5104344;28;20220;-81
2022/12/17 19:52:15;;;;;;;24.87;14.20;;;-5.50;99.90;;;;;;5104095;28;20658;-81
2022/12/17 19:54:42;;;;;;;25.43;14.37;;;-5.50;99.90;;;;;;5102175;28;20213;-80
2022/12/17 19:57:09;;;;;;;26.70;13.87;;;-5.40;99.90;;;;;;5098400;28;20218;-80
2022/12/17 19:59:37;;;;;;;24.97;13.97;;;-5.40;99.90;;;;;;5103312;28;20212;-81
2022/12/17 20:02:03;;;;;;;25.00;14.53;;;-5.30;99.90;;;;;;5103504;28;20261;-80
2022/12/17 20:04:30;;;;;;;28.30;15.40;;;-5.30;99.90;;;;;;5101144;28;20288;-80
2022/12/17 20:06:59;;;;;;;26.13;14.77;;;-4.90;99.90;;;;;;5103428;28;20546;-81
2022/12/17 20:09:26;;;;;;;28.13;14.63;;;-4.80;99.90;;;;;;5103423;28;20217;-81
2022/12/17 20:11:53;;;;;;;24.87;14.40;;;-4.60;99.90;;;;;;5103299;28;20198;-81
2022/12/17 20:14:22;;;;;;;25.20;14.53;;;-4.30;99.90;;;;;;5096997;28;20206;-81
2022/12/17 20:16:52;;;;;;;27.07;16.30;;;-4.50;99.90;;;;;;5097699;28;20222;-80
2022/12/17 20:19:20;;;;;;;26.73;16.17;;;-4.10;99.90;;;;;;5103429;28;20649;-80
2022/12/17 20:21:48;;;;;;;26.03;14.53;;;-4.30;99.90;;;;;;5103536;28;20208;-80
2022/12/17 20:24:15;;;;;;;24.37;14.10;;;-4.20;99.90;;;;;;5102059;28;20205;-80
2022/12/17 20:26:43;;;;;;;23.73;13.63;;;-4.40;99.90;;;;;;5101144;28;20221;-80
2022/12/17 20:29:10;;;;;;;24.17;14.07;;;-4.50;99.90;;;;;;5103694;28;20221;-81
2022/12/17 20:31:38;;;;;;;30.43;17.77;;;-4.40;99.90;;;;;;5103478;28;20212;-80
2022/12/17 20:34:08;;;;;;;23.30;13.80;;;-4.40;99.90;;;;;;5101244;28;20201;-81
2022/12/17 20:36:35;;;;;;;25.93;14.33;;;-4.40;99.90;;;;;;5106527;28;20221;-81
2022/12/17 20:39:03;;;;;;;22.80;12.60;;;-4.40;99.90;;;;;;5101164;28;20293;-80
2022/12/17 20:41:30;;;;;;;25.70;14.00;;;-4.60;99.90;;;;;;5098921;28;20257;-81
2022/12/17 20:43:58;;;;;;;24.63;14.37;;;-4.90;99.90;;;;;;5102150;28;20197;-80
2022/12/17 20:46:25;;;;;;;24.77;13.87;;;-4.90;99.90;;;;;;5099451;28;20208;-80
2022/12/17 20:48:53;;;;;;;25.97;14.27;;;-4.90;99.90;;;;;;5100919;28;20201;-80
2022/12/17 20:51:23;;;;;;;25.07;14.40;;;-4.90;99.90;;;;;;5094311;28;20605;-81
2022/12/17 20:53:51;;;;;;;24.23;13.70;;;-5.10;99.90;;;;;;5103288;28;20198;-80
2022/12/17 20:56:19;;;;;;;22.87;13.20;;;-5.20;99.90;;;;;;5093282;28;20285;-80
2022/12/17 20:58:47;;;;;;;26.77;13.97;;;-5.30;99.90;;;;;;5100236;28;20225;-80
2022/12/17 21:01:17;;;;;;;26.30;14.80;;;-5.40;99.90;;;;;;5091724;28;20252;-81
2022/12/17 21:03:44;;;;;;;24.97;14.33;;;-5.30;99.90;;;;;;5087433;28;20209;-80
2022/12/17 21:06:13;;;;;;;28.97;15.17;;;-5.20;99.90;;;;;;5091133;28;20200;-81
2022/12/17 21:08:42;;;;;;;27.27;14.60;;;-5.20;99.90;;;;;;5095719;28;20216;-81
2022/12/17 21:11:09;;;;;;;30.43;16.27;;;-5.30;99.90;;;;;;5093894;28;20228;-82
2022/12/17 21:13:37;;;;;;;25.73;14.30;;;-5.30;99.90;;;;;;5101793;28;20205;-81
2022/12/17 21:16:06;;;;;;;25.70;14.17;;;-5.40;99.90;;;;;;5097790;28;20316;-81
2022/12/17 21:18:34;;;;;;;24.90;14.97;;;-5.50;99.90;;;;;;5094112;28;20225;-81
2022/12/17 21:21:04;;;;;;;26.00;14.73;;;-5.60;99.90;;;;;;5097886;28;20204;-81
2022/12/17 21:23:31;;;;;;;27.30;16.07;;;-5.80;99.90;;;;;;5077349;28;20206;-82
2022/12/17 21:26:02;;;;;;;26.27;14.57;;;-6.00;99.90;;;;;;5075488;28;20712;-81
2022/12/17 21:28:29;;;;;;;25.23;14.70;;;-6.00;99.90;;;;;;5090920;28;20224;-81
2022/12/17 21:30:56;;;;;;;24.67;15.17;;;-6.00;99.90;;;;;;5093477;28;20681;-81
2022/12/17 21:33:23;;;;;;;40.50;15.20;;;-5.90;99.90;;;;;;5084108;28;20208;-81
2022/12/17 21:35:50;;;;;;;25.47;14.03;;;-5.90;99.90;;;;;;5093372;28;20208;-81
2022/12/17 21:38:17;;;;;;;26.13;15.10;;;-6.00;99.90;;;;;;5086829;28;20224;-81
2022/12/17 21:40:43;;;;;;;26.13;15.83;;;-5.90;99.90;;;;;;5087955;28;20194;-81
2022/12/17 21:43:11;;;;;;;26.60;15.07;;;-6.00;99.90;;;;;;5088593;28;20232;-81
2022/12/17 21:45:40;;;;;;;22.93;13.33;;;-5.90;99.90;;;;;;5086318;28;20583;-80
2022/12/17 21:48:08;;;;;;;28.33;14.43;;;-6.00;99.90;;;;;;5086121;28;20269;-80
2022/12/17 21:50:38;;;;;;;23.43;13.80;;;-5.90;99.90;;;;;;5090384;28;20217;-81
2022/12/17 21:53:05;;;;;;;24.80;14.37;;;-5.70;99.90;;;;;;5088953;28;20199;-80
2022/12/17 21:55:32;;;;;;;26.13;14.27;;;-5.80;99.90;;;;;;5087180;28;20197;-80
2022/12/17 21:57:59;;;;;;;24.93;13.80;;;-5.90;99.90;;;;;;5083894;28;20229;-81
2022/12/17 22:00:27;;;;;;;27.07;14.73;;;-6.10;99.90;;;;;;5093103;28;20198;-80
2022/12/17 22:02:54;;;;;;;26.33;13.47;;;-6.30;99.90;;;;;;5086936;28;20216;-80
2022/12/17 22:05:20;;;;;;;23.57;13.47;;;-6.30;99.90;;;;;;5088152;28;20210;-80
2022/12/17 22:07:47;;;;;;;25.47;14.20;;;-6.40;99.90;;;;;;5088064;28;20244;-80
2022/12/17 22:10:15;;;;;;;26.13;14.83;;;-6.40;99.90;;;;;;5090024;28;20222;-80
2022/12/17 22:15:27;;;;;;;25.83;14.50;;;-6.30;99.90;;;;;;5085942;28;20205;-80
2022/12/17 22:17:55;;;;;;;26.67;15.53;;;-6.40;99.90;;;;;;5086184;28;20218;-80
2022/12/17 22:20:22;;;;;;;25.23;14.43;;;-6.40;99.90;;;;;;5088779;28;20201;-80
2022/12/17 22:22:49;;;;;;;24.50;14.17;;;-6.40;99.90;;;;;;5087014;28;20266;-80
2022/12/17 22:25:16;;;;;;;32.37;17.40;;;-6.50;99.90;;;;;;5086208;28;20202;-80
2022/12/17 22:27:43;;;;;;;32.53;17.90;;;-6.40;99.90;;;;;;5085706;28;20601;-81
2022/12/17 22:33:04;;;;;;;40.77;22.70;;;-6.60;99.90;;;;;;5085379;28;20286;-80
2022/12/17 22:35:34;;;;;;;42.10;24.13;;;-6.60;99.90;;;;;;5083429;28;20204;-80
2022/12/17 22:38:02;;;;;;;36.27;21.93;;;-6.60;99.90;;;;;;5082600;28;20305;-80
2022/12/17 22:40:29;;;;;;;33.93;20.27;;;-6.60;99.90;;;;;;5083472;28;20300;-80
2022/12/17 22:45:40;;;;;;;34.73;21.27;;;-6.70;99.90;;;;;;5094126;28;20207;-80
2022/12/17 22:48:09;;;;;;;34.53;21.37;;;-6.70;99.90;;;;;;5089733;28;20225;-80
2022/12/17 22:50:37;;;;;;;37.20;21.60;;;-6.70;99.90;;;;;;5093980;28;20224;-80
2022/12/17 22:53:04;;;;;;;44.03;22.30;;;-6.80;99.90;;;;;;5100736;28;20200;-79
2022/12/17 22:55:31;;;;;;;38.73;22.63;;;-6.70;99.90;;;;;;5090075;28;20646;-80
2022/12/17 22:57:57;;;;;;;38.23;21.67;;;-6.60;99.90;;;;;;5083369;28;20651;-80
2022/12/17 23:00:27;;;;;;;37.30;24.03;;;-6.70;99.90;;;;;;5089003;28;20200;-79
2022/12/17 23:02:55;;;;;;;38.10;22.67;;;-6.70;99.90;;;;;;5088805;28;20254;-80
2022/12/17 23:05:24;;;;;;;35.10;22.73;;;-7.00;99.90;;;;;;5090463;28;20206;-79
2022/12/17 23:07:52;;;;;;;36.40;22.23;;;-7.00;99.90;;;;;;5084662;28;20224;-80
2022/12/17 23:10:19;;;;;;;37.30;22.27;;;-7.10;99.90;;;;;;5088346;28;20229;-80
2022/12/17 23:12:53;;;;;;;38.10;22.50;;;-7.10;99.90;;;;;;5087774;28;20661;-81
2022/12/17 23:15:23;;;;;;;36.00;22.10;;;-7.00;99.90;;;;;;5086849;28;20289;-80
2022/12/17 23:17:50;;;;;;;37.07;22.13;;;-6.90;99.90;;;;;;5092773;28;20239;-81
2022/12/17 23:20:17;;;;;;;39.47;22.90;;;-6.90;99.90;;;;;;5088785;28;20197;-80
2022/12/17 23:22:45;;;;;;;37.77;22.50;;;-7.00;99.90;;;;;;5088654;28;20541;-81
2022/12/17 23:25:12;;;;;;;40.43;23.63;;;-7.10;99.90;;;;;;5089877;28;20197;-81
2022/12/17 23:27:42;;;;;;;39.60;23.17;;;-7.10;99.90;;;;;;5090815;28;20226;-81
2022/12/17 23:30:09;;;;;;;38.57;22.50;;;-7.00;99.90;;;;;;5088891;28;20193;-81
2022/12/17 23:32:37;;;;;;;33.93;20.20;;;-6.90;99.90;;;;;;5090744;28;20206;-82
2022/12/17 23:35:04;;;;;;;38.03;20.97;;;-6.90;99.90;;;;;;5094334;28;20210;-82
2022/12/17 23:37:31;;;;;;;38.80;23.70;;;-7.10;99.90;;;;;;5090725;28;20274;-81
2022/12/17 23:39:59;;;;;;;37.80;23.60;;;-7.90;99.90;;;;;;5092390;28;20205;-80
2022/12/17 23:42:26;;;;;;;37.30;22.13;;;-7.50;99.90;;;;;;5091632;28;21681;-83
2022/12/17 23:44:53;;;;;;;38.17;22.40;;;-7.40;99.90;;;;;;5085791;28;20213;-81
2022/12/17 23:47:20;;;;;;;38.70;21.50;;;-7.40;99.90;;;;;;5096298;28;20697;-80
2022/12/17 23:49:47;;;;;;;37.47;22.17;;;-7.30;99.90;;;;;;5089106;28;20261;-81
2022/12/17 23:52:13;;;;;;;35.40;20.73;;;-7.40;99.90;;;;;;5093051;28;20305;-81
2022/12/17 23:54:40;;;;;;;35.43;20.87;;;-7.30;99.90;;;;;;5096926;28;20205;-81
2022/12/17 23:57:08;;;;;;;31.40;18.13;;;-7.30;99.90;;;;;;5096193;28;20225;-81
2022/12/17 23:59:36;;;;;;;33.90;18.57;;;-7.00;99.90;;;;;;5089511;28;20205;-81
